Time;durP1;ratioP1;P1;durP2;ratioP2;P2;SDS_P1;SDS_P2;PMS_P1;PMS_P2;Temp;Humidity;BMP_temperature;BMP_pressure;BME280_temperature;BME280_humidity;BME280_pressure;Samples;Min_cycle;Max_cycle;Signal;HPM_P1;HPM_P2
2022/07/05 00:00:29;;;;;;;;;;;;;;;15.84;100.00;-21230.31;5057125;28;19922;-79
2022/07/05 00:02:55;;;;;;;;;;;;;;;15.86;100.00;-22877.78;5057271;28;19908;-82
2022/07/05 00:05:20;;;;;;;;;;;;;;;15.86;100.00;-24523.97;5057737;28;19936;-84
2022/07/05 00:07:45;;;;;;;;;;;;;;;15.82;100.00;-25512.34;5091265;28;19923;-83
2022/07/05 00:10:11;;;;;;;;;;;;;;;15.76;100.00;-25510.72;5057616;28;19963;-81
2022/07/05 00:12:36;;;;;;;;;;;;;;;15.66;100.00;-25507.69;5057505;28;20011;-83
2022/07/05 00:15:02;;;;;;;;;;;;;;;15.63;100.00;-25506.97;5057623;28;19952;-83
2022/07/05 00:17:27;;;;;;;;;;;;;;;15.68;100.00;-25508.41;5091193;28;19919;-83
2022/07/05 00:19:52;;;;;;;;;;;;;;;15.59;100.00;-25505.78;5057184;28;19913;-84
2022/07/05 00:22:18;;;;;;;;;;;;;;;15.64;100.00;-25507.25;5057091;28;19924;-84
2022/07/05 00:24:45;;;;;;;;;;;;;;;15.69;100.00;-25508.69;5073651;28;20357;-84
2022/07/05 00:27:11;;;;;;;;;;;;;;;15.69;100.00;-25508.69;5070638;28;20766;-80
2022/07/05 00:29:46;;;;;;;;;;;;;;;15.71;100.00;-25509.13;5055155;28;19919;-84
2022/07/05 00:32:11;;;;;;;;;;;;;;;15.72;100.00;-25509.56;5053647;28;19954;-84
2022/07/05 00:34:39;;;;;;;;;;;;;;;15.72;100.00;-25509.56;5053907;28;19912;-85
2022/07/05 00:37:04;;;;;;;;;;;;;;;15.74;100.00;-25510.16;5057059;28;20176;-82
2022/07/05 00:39:29;;;;;;;;;;;;;;;15.74;100.00;-25510.16;5057145;28;19908;-82
2022/07/05 00:41:54;;;;;;;;;;;;;;;15.76;100.00;-25510.72;5057223;28;19947;-84
2022/07/05 00:44:41;;;;;;;;;;;;;;;15.76;100.00;-25510.59;5054175;28;20513;-83
2022/07/05 00:47:07;;;;;;;;;;;;;;;15.70;100.00;-25509.00;5057621;28;20360;-83
2022/07/05 00:49:33;;;;;;;;;;;;;;;15.66;100.00;-25507.84;5058656;28;19954;-78
2022/07/05 00:51:59;;;;;;;;;;;;;;;15.66;100.00;-25507.84;5057036;28;19913;-84
2022/07/05 00:54:25;;;;;;;;;;;;;;;15.66;100.00;-25507.84;5051800;28;19923;-84
2022/07/05 00:56:51;;;;;;;;;;;;;;;15.62;100.00;-25506.66;5054561;28;19917;-81
2022/07/05 00:59:16;;;;;;;;;;;;;;;15.58;100.00;-25505.50;5061020;28;19916;-85
2022/07/05 01:01:42;;;;;;;;;;;;;;;15.59;100.00;-25505.78;5056553;28;19935;-82
2022/07/05 01:04:17;;;;;;;;;;;;;;;15.55;100.00;-25504.78;5056439;28;19959;-80
2022/07/05 01:06:44;;;;;;;;;;;;;;;15.50;100.00;-25503.31;5086718;28;19912;-81
2022/07/05 01:09:15;;;;;;;;;;;;;;;15.51;100.00;-25503.47;5053098;28;20533;-83
2022/07/05 01:11:42;;;;;;;;;;;;;;;15.48;100.00;-25502.59;5056256;28;19923;-82
2022/07/05 01:14:17;;;;;;;;;;;;;;;15.41;100.00;-25500.84;5052918;28;19920;-85
2022/07/05 01:16:43;;;;;;;;;;;;;;;15.33;100.00;-25498.38;5052418;28;19940;-82
2022/07/05 01:19:09;;;;;;;;;;;;;;;15.28;100.00;-25497.06;5053064;28;20335;-82
2022/07/05 01:21:42;;;;;;;;;;;;;;;15.31;100.00;-25497.78;5053169;28;19912;-82
2022/07/05 01:24:11;;;;;;;;;;;;;;;15.23;100.00;-25495.75;5055722;28;19928;-84
2022/07/05 01:26:37;;;;;;;;;;;;;;;15.05;100.00;-25490.53;5055637;28;19923;-85
2022/07/05 01:29:03;;;;;;;;;;;;;;;14.98;100.00;-25488.63;5055939;28;19916;-84
2022/07/05 01:31:28;;;;;;;;;;;;;;;14.88;100.00;-25485.72;5055789;28;20003;-85
2022/07/05 01:33:55;;;;;;;;;;;;;;;14.82;100.00;-25483.97;5054954;28;19919;-84
2022/07/05 01:36:21;;;;;;;;;;;;;;;14.80;100.00;-25483.53;5068131;28;19900;-83
2022/07/05 01:38:46;;;;;;;;;;;;;;;14.82;100.00;-25483.97;5069265;28;20423;-84
2022/07/05 01:41:11;;;;;;;;;;;;;;;14.86;100.00;-25485.28;5069852;28;20383;-83
2022/07/05 01:43:37;;;;;;;;;;;;;;;14.86;100.00;-25485.28;5088396;28;19905;-80
2022/07/05 01:46:04;;;;;;;;;;;;;;;14.87;100.00;-25485.44;5066591;28;19916;-79
2022/07/05 01:48:32;;;;;;;;;;;;;;;14.89;100.00;-25486.00;5058096;28;19912;-80
2022/07/05 01:51:01;;;;;;;;;;;;;;;14.89;100.00;-25486.00;5075122;28;19917;-78
2022/07/05 01:53:28;;;;;;;;;;;;;;;14.83;100.00;-25484.25;5053181;28;19913;-82
2022/07/05 01:55:55;;;;;;;;;;;;;;;14.74;100.00;-25481.63;5055616;28;19916;-78
2022/07/05 01:58:24;;;;;;;;;;;;;;;14.77;100.00;-25482.50;5056238;28;19912;-80
2022/07/05 02:00:51;;;;;;;;;;;;;;;14.76;100.00;-25482.38;5056892;28;20487;-79
2022/07/05 02:03:22;;;;;;;;;;;;;;;14.79;100.00;-25483.25;5073503;28;19916;-79
2022/07/05 02:05:47;;;;;;;;;;;;;;;14.79;100.00;-25483.25;5063355;28;20372;-78
2022/07/05 02:08:14;;;;;;;;;;;;;;;14.76;100.00;-25482.38;5054757;28;19919;-79
2022/07/05 02:10:39;;;;;;;;;;;;;;;14.76;100.00;-25482.22;5053485;28;20365;-84
2022/07/05 02:13:05;;;;;;;;;;;;;;;14.70;100.00;-25480.75;5058345;28;19961;-80
2022/07/05 02:15:31;;;;;;;;;;;;;;;14.64;100.00;-25479.00;5056978;28;20599;-82
2022/07/05 02:17:56;;;;;;;;;;;;;;;14.55;100.00;-25476.38;5074546;28;20002;-80
2022/07/05 02:20:22;;;;;;;;;;;;;;;14.53;100.00;-25475.81;5052334;28;19952;-78
2022/07/05 02:22:47;;;;;;;;;;;;;;;14.55;100.00;-25476.38;5050882;28;20335;-80
2022/07/05 02:25:12;;;;;;;;;;;;;;;14.55;100.00;-25476.53;5067161;28;19923;-84
2022/07/05 02:27:38;;;;;;;;;;;;;;;14.51;100.00;-25475.38;5054739;28;19920;-80
2022/07/05 02:30:03;;;;;;;;;;;;;;;14.51;100.00;-25475.22;5055636;28;19920;-79
2022/07/05 02:32:32;;;;;;;;;;;;;;;14.50;100.00;-25474.94;5051769;28;19919;-79
2022/07/05 02:34:58;;;;;;;;;;;;;;;14.48;100.00;-25474.50;5068641;28;20369;-80
2022/07/05 02:37:23;;;;;;;;;;;;;;;14.48;100.00;-25474.34;5082983;28;20007;-80
2022/07/05 02:39:48;;;;;;;;;;;;;;;14.49;100.00;-25474.63;5057013;28;19943;-84
2022/07/05 02:42:13;;;;;;;;;;;;;;;14.50;100.00;-25474.94;5064271;28;19972;-81
2022/07/05 02:44:39;;;;;;;;;;;;;;;14.53;100.00;-25475.81;5070133;28;19917;-82
2022/07/05 02:47:04;;;;;;;;;;;;;;;14.50;100.00;-25475.06;5071249;28;19923;-83
2022/07/05 02:49:29;;;;;;;;;;;;;;;14.48;100.00;-25474.50;5070865;28;19995;-82
2022/07/05 02:51:55;;;;;;;;;;;;;;;14.47;100.00;-25474.06;5070478;28;19923;-82
2022/07/05 02:54:20;;;;;;;;;;;;;;;14.40;100.00;-25472.16;5067531;28;19921;-81
2022/07/05 02:56:45;;;;;;;;;;;;;;;14.32;100.00;-25469.84;5066962;28;19912;-83
2022/07/05 02:59:10;;;;;;;;;;;;;;;14.24;100.00;-25467.66;5067506;28;20032;-79
2022/07/05 03:01:36;;;;;;;;;;;;;;;14.22;100.00;-25466.91;5065244;28;19992;-85
2022/07/05 03:04:09;;;;;;;;;;;;;;;14.23;100.00;-25467.34;5082332;28;19916;-81
2022/07/05 03:06:35;;;;;;;;;;;;;;;14.22;100.00;-25467.06;5055041;28;20361;-81
2022/07/05 03:09:00;;;;;;;;;;;;;;;14.23;100.00;-25467.22;5052052;28;19916;-85
2022/07/05 03:11:26;;;;;;;;;;;;;;;14.18;100.00;-25466.03;5086139;28;20353;-85
2022/07/05 03:13:52;;;;;;;;;;;;;;;14.16;100.00;-25465.31;5055569;28;19919;-84
2022/07/05 03:16:17;;;;;;;;;;;;;;;14.24;100.00;-25467.66;5055495;28;19912;-85
2022/07/05 03:18:43;;;;;;;;;;;;;;;14.34;100.00;-25470.41;5056278;28;20365;-85
2022/07/05 03:21:08;;;;;;;;;;;;;;;14.40;100.00;-25472.03;5055167;28;19920;-82
2022/07/05 03:23:34;;;;;;;;;;;;;;;14.45;100.00;-25473.47;5057991;28;19923;-83
2022/07/05 03:26:00;;;;;;;;;;;;;;;14.44;100.00;-25473.34;5057115;28;19920;-80
2022/07/05 03:28:25;;;;;;;;;;;;;;;14.49;100.00;-25474.63;5058367;28;20284;-84
2022/07/05 03:30:50;;;;;;;;;;;;;;;14.48;100.00;-25474.50;5057921;28;20016;-81
2022/07/05 03:33:16;;;;;;;;;;;;;;;14.45;100.00;-25473.47;5058749;28;19908;-82
2022/07/05 03:35:42;;;;;;;;;;;;;;;14.42;100.00;-25472.59;5054519;28;19913;-80
2022/07/05 03:38:07;;;;;;;;;;;;;;;14.41;100.00;-25472.31;5054994;28;19916;-80
2022/07/05 03:40:32;;;;;;;;;;;;;;;14.46;100.00;-25473.91;5088121;28;19982;-84
2022/07/05 03:42:58;;;;;;;;;;;;;;;14.52;100.00;-25475.66;5054418;28;19920;-81
2022/07/05 03:45:23;;;;;;;;;;;;;;;14.58;100.00;-25477.25;5054741;28;19920;-82
2022/07/05 03:47:48;;;;;;;;;;;;;;;14.58;100.00;-25477.13;5054368;28;19917;-80
2022/07/05 03:50:14;;;;;;;;;;;;;;;14.65;100.00;-25479.31;5054214;28;19921;-81
2022/07/05 03:52:42;;;;;;;;;;;;;;;14.70;100.00;-25480.75;5054030;28;19917;-81
2022/07/05 03:55:07;;;;;;;;;;;;;;;14.77;100.00;-25482.50;5054524;28;19917;-82
2022/07/05 03:57:33;;;;;;;;;;;;;;;14.80;100.00;-25483.53;5057457;28;19908;-81
2022/07/05 03:59:58;;;;;;;;;;;;;;;14.83;100.00;-25484.25;5054392;28;20280;-81
2022/07/05 04:02:23;;;;;;;;;;;;;;;14.90;100.00;-25486.31;5054100;28;20384;-81
2022/07/05 04:04:49;;;;;;;;;;;;;;;14.98;100.00;-25488.63;5053510;28;19948;-82
2022/07/05 04:07:14;;;;;;;;;;;;;;;14.91;100.00;-25486.59;5070739;28;19912;-84
2022/07/05 04:09:39;;;;;;;;;;;;;;;14.90;100.00;-25486.44;5055442;28;19966;-82
2022/07/05 04:12:05;;;;;;;;;;;;;;;14.88;100.00;-25485.72;5053680;28;19909;-80
2022/07/05 04:14:31;;;;;;;;;;;;;;;14.93;100.00;-25487.19;5054466;28;20383;-82
2022/07/05 04:16:56;;;;;;;;;;;;;;;14.97;100.00;-25488.19;5054322;28;19939;-84
2022/07/05 04:19:22;;;;;;;;;;;;;;;14.92;100.00;-25486.75;5054104;28;20132;-82
2022/07/05 04:21:47;;;;;;;;;;;;;;;14.77;100.00;-25482.50;5071280;28;19916;-80
2022/07/05 04:24:22;;;;;;;;;;;;;;;14.77;100.00;-25482.50;5053580;28;19958;-84
2022/07/05 04:26:47;;;;;;;;;;;;;;;14.88;100.00;-25485.88;5054286;28;20357;-81
2022/07/05 04:29:12;;;;;;;;;;;;;;;14.92;100.00;-25486.88;5057648;28;20007;-80
2022/07/05 04:31:38;;;;;;;;;;;;;;;15.09;100.00;-25491.69;5090395;28;19916;-83
2022/07/05 04:34:09;;;;;;;;;;;;;;;15.24;100.00;-25496.06;5056559;28;20383;-79
2022/07/05 04:36:34;;;;;;;;;;;;;;;15.25;100.00;-25496.34;5057085;28;19919;-79
2022/07/05 04:39:01;;;;;;;;;;;;;;;15.24;100.00;-25496.06;5090457;28;19920;-79
2022/07/05 04:41:26;;;;;;;;;;;;;;;16.48;100.00;-25531.09;5057053;28;19973;-80
2022/07/05 04:43:52;;;;;;;;;;;;;;;17.13;100.00;-25549.38;5056162;28;19919;-80
2022/07/05 04:46:18;;;;;;;;;;;;;;;18.72;100.00;-25594.09;5055961;28;20364;-78
2022/07/05 04:48:43;;;;;;;;;;;;;;;20.18;100.00;-25634.97;5054026;28;19919;-80
2022/07/05 04:51:08;;;;;;;;;;;;;;;21.54;100.00;-25673.13;5055991;28;19947;-79
2022/07/05 04:53:34;;;;;;;;;;;;;;;22.59;100.00;-339.38;5055946;28;20627;-79
2022/07/05 04:55:59;;;;;;;;;;;;;;;23.20;100.00;74100.41;5090005;28;19951;-79
2022/07/05 04:58:24;;;;;;;;;;;;;;;23.77;100.00;148693.50;5056231;28;19923;-79
2022/07/05 05:00:49;;;;;;;;;;;;;;;23.90;100.00;148724.38;5088991;28;19916;-80
2022/07/05 05:03:16;;;;;;;;;;;;;;;24.06;100.00;148764.16;5055166;28;19912;-78
2022/07/05 05:05:41;;;;;;;;;;;;;;;24.17;100.00;148792.41;5055330;28;20050;-81
2022/07/05 05:08:06;;;;;;;;;;;;;;;24.86;100.00;148965.88;5073129;28;19981;-80
2022/07/05 05:10:32;;;;;;;;;;;;;;;24.77;100.00;148941.50;5072528;28;19912;-79
2022/07/05 05:12:58;;;;;;;;;;;;;;;24.45;100.00;148861.75;5054695;28;19993;-78
2022/07/05 05:15:27;;;;;;;;;;;;;;;25.02;100.00;149004.44;5053732;28;19912;-79
2022/07/05 05:17:52;;;;;;;;;;;;;;;25.76;100.00;149189.53;5088372;28;19912;-79
2022/07/05 05:20:18;;;;;;;;;;;;;;;25.29;100.00;149071.31;5072243;28;19924;-80
2022/07/05 05:22:45;;;;;;;;;;;;;;;24.79;100.00;148946.59;5054286;28;20015;-79
2022/07/05 05:25:10;;;;;;;;;;;;;;;23.46;100.00;148615.16;5055186;28;20003;-79
2022/07/05 05:27:46;;;;;;;;;;;;;;;22.36;100.00;148340.53;5088516;28;20341;-80
2022/07/05 05:30:12;;;;;;;;;;;;;;;21.84;100.00;148210.91;5055016;28;20011;-78
2022/07/05 05:32:37;;;;;;;;;;;;;;;20.98;100.00;147996.78;5054742;28;19912;-80
2022/07/05 05:35:03;;;;;;;;;;;;;;;20.40;100.00;147851.91;5072084;28;19986;-78
2022/07/05 05:37:28;;;;;;;;;;;;;;;20.03;100.00;147759.72;5088607;28;20344;-79
2022/07/05 05:39:53;;;;;;;;;;;;;;;20.04;100.00;147762.25;5072520;28;20345;-78
2022/07/05 05:42:18;;;;;;;;;;;;;;;19.81;100.00;147705.94;5072174;28;19970;-79
2022/07/05 05:44:47;;;;;;;;;;;;;;;19.48;100.00;147623.94;5087590;28;20272;-79
2022/07/05 05:47:13;;;;;;;;;;;;;;;19.52;100.00;147634.16;5088261;28;19982;-78
2022/07/05 05:49:38;;;;;;;;;;;;;;;19.20;100.00;147553.50;5054564;28;19917;-79
2022/07/05 05:52:04;;;;;;;;;;;;;;;19.05;100.00;147516.41;5091276;28;19915;-78
2022/07/05 05:54:29;;;;;;;;;;;;;;;19.08;100.00;147522.78;5087309;28;19919;-78
2022/07/05 05:56:55;;;;;;;;;;;;;;;19.14;100.00;147538.16;5087853;28;19965;-80
2022/07/05 05:59:20;;;;;;;;;;;;;;;18.93;100.00;147486.97;5054427;28;19920;-81
2022/07/05 06:01:46;;;;;;;;;;;;;;;19.06;100.00;147517.69;5072388;28;19912;-77
2022/07/05 06:04:12;;;;;;;;;;;;;;;19.15;100.00;147540.72;5054145;28;19919;-78
2022/07/05 06:06:37;;;;;;;;;;;;;;;19.17;100.00;147547.13;5107747;28;19918;-77
2022/07/05 06:09:03;;;;;;;;;;;;;;;19.07;100.00;147520.25;5092479;28;20283;-79
2022/07/05 06:11:28;;;;;;;;;;;;;;;19.00;100.00;147504.91;5074556;28;19969;-79
2022/07/05 06:13:54;;;;;;;;;;;;;;;18.83;100.00;147461.28;5070988;28;19920;-78
2022/07/05 06:16:19;;;;;;;;;;;;;;;19.07;100.00;147520.25;5054306;28;19923;-79
2022/07/05 06:18:45;;;;;;;;;;;;;;;19.11;100.00;147531.78;5054419;28;20543;-79
2022/07/05 06:21:10;;;;;;;;;;;;;;;19.04;100.00;147512.56;5054050;28;19912;-78
2022/07/05 06:23:35;;;;;;;;;;;;;;;18.90;100.00;147479.28;5054191;28;19913;-80
2022/07/05 06:26:01;;;;;;;;;;;;;;;18.96;100.00;147494.63;5072193;28;19982;-79
2022/07/05 06:28:31;;;;;;;;;;;;;;;19.03;100.00;147511.25;5080872;28;20038;-79
2022/07/05 06:30:57;;;;;;;;;;;;;;;19.06;100.00;147517.69;5051349;28;19920;-80
2022/07/05 06:33:22;;;;;;;;;;;;;;;19.08;100.00;147524.09;5051696;28;19916;-78
2022/07/05 06:35:47;;;;;;;;;;;;;;;19.11;100.00;147531.78;5051984;28;19917;-79
2022/07/05 06:38:16;;;;;;;;;;;;;;;19.15;100.00;147541.97;5071345;28;19913;-80
2022/07/05 06:40:42;;;;;;;;;;;;;;;19.15;100.00;147541.97;5031426;28;19917;-78
2022/07/05 06:43:09;;;;;;;;;;;;;;;19.30;100.00;147577.84;5030708;28;19913;-79
2022/07/05 06:45:35;;;;;;;;;;;;;;;19.31;100.00;147580.38;5031190;28;19932;-79
2022/07/05 06:48:01;;;;;;;;;;;;;;;19.38;100.00;147598.31;5035619;28;20320;-79
2022/07/05 06:50:27;;;;;;;;;;;;;;;19.36;100.00;147593.22;5035218;28;19909;-78
2022/07/05 06:52:53;;;;;;;;;;;;;;;19.46;100.00;147618.78;5034619;28;19913;-80
2022/07/05 06:55:18;;;;;;;;;;;;;;;19.53;100.00;147635.47;5036615;28;20334;-80
2022/07/05 06:57:45;;;;;;;;;;;;;;;19.32;100.00;147582.97;5034610;28;20376;-80
2022/07/05 07:00:10;;;;;;;;;;;;;;;19.46;100.00;147618.78;5035231;28;19913;-80
2022/07/05 07:02:47;;;;;;;;;;;;;;;19.57;100.00;147645.69;5034935;28;19909;-80
2022/07/05 07:05:12;;;;;;;;;;;;;;;19.55;100.00;147641.84;5035424;28;20336;-81
2022/07/05 07:10:21;;;;;;;;;;;;;;;19.71;100.00;147681.53;5036666;28;19924;-79
2022/07/05 07:12:48;;;;;;;;;;;;;;;20.04;100.00;147763.56;5034321;28;19913;-81
2022/07/05 07:15:13;;;;;;;;;;;;;;;20.00;100.00;147753.31;5032642;28;19967;-77
2022/07/05 07:17:38;;;;;;;;;;;;;;;20.27;100.00;147821.22;5032864;28;19956;-78
2022/07/05 07:20:04;;;;;;;;;;;;;;;20.64;100.00;147912.16;5035462;28;19913;-78
2022/07/05 07:22:29;;;;;;;;;;;;;;;21.36;100.00;148090.34;5033595;28;19954;-78
2022/07/05 07:24:54;;;;;;;;;;;;;;;21.95;100.00;148237.84;5033922;28;20255;-78
2022/07/05 07:27:20;;;;;;;;;;;;;;;21.72;100.00;148180.13;5033936;28;19917;-79
2022/07/05 07:29:45;;;;;;;;;;;;;;;22.43;100.00;148357.19;5017108;28;19960;-79
2022/07/05 07:32:10;;;;;;;;;;;;;;;23.10;100.00;148525.31;5017797;28;20356;-79
2022/07/05 07:34:37;;;;;;;;;;;;;;;23.54;100.00;148635.72;5017249;28;19913;-78
2022/07/05 07:37:03;;;;;;;;;;;;;;;23.92;100.00;148730.75;5017566;28;20011;-78
2022/07/05 07:39:28;;;;;;;;;;;;;;;24.86;100.00;148965.88;5017650;28;20421;-79
2022/07/05 07:41:54;;;;;;;;;;;;;;;24.72;100.00;148929.91;5017449;28;19996;-79
2022/07/05 07:44:21;;;;;;;;;;;;;;;26.26;100.00;149315.63;5016929;28;19999;-77
2022/07/05 07:46:46;;;;;;;;;;;;;;;25.88;100.00;149220.41;5050516;28;19991;-79
2022/07/05 07:49:12;;;;;;;;;;;;;;;25.65;100.00;149162.53;5016830;28;19917;-77
2022/07/05 07:51:37;;;;;;;;;;;;;;;26.81;100.00;149452.00;5016925;28;19913;-79
2022/07/05 07:54:04;;;;;;;;;;;;;;;26.77;100.00;149443.03;5034935;28;19956;-80
2022/07/05 07:56:29;;;;;;;;;;;;;;;26.36;100.00;149338.78;5050123;28;19948;-78
2022/07/05 07:58:55;;;;;;;;;;;;;;;26.46;100.00;149364.47;5015995;28;19920;-78
2022/07/05 08:01:20;;;;;;;;;;;;;;;24.81;100.00;148951.72;5016936;28;19913;-79
2022/07/05 08:03:46;;;;;;;;;;;;;;;24.27;100.00;148818.09;5016833;28;19913;-80
2022/07/05 08:06:12;;;;;;;;;;;;;;;23.20;100.00;148551.00;5017443;28;19967;-80
2022/07/05 08:08:38;;;;;;;;;;;;;;;23.11;100.00;148527.88;5017164;28;20012;-80
2022/07/05 08:11:04;;;;;;;;;;;;;;;22.78;100.00;148445.72;5033105;28;19909;-80
2022/07/05 08:13:29;;;;;;;;;;;;;;;23.95;100.00;148738.47;5015887;28;19913;-79
2022/07/05 08:15:55;;;;;;;;;;;;;;;24.58;100.00;148893.91;5049021;28;19932;-79
2022/07/05 08:23:49;;;;;;;;;;;;;;;25.01;100.00;149001.84;5034202;28;19926;-79
2022/07/05 08:26:14;;;;;;;;;;;;;;;24.33;100.00;148833.53;5016043;28;20399;-78
2022/07/05 08:28:39;;;;;;;;;;;;;;;24.28;100.00;148820.66;5015858;28;19917;-81
2022/07/05 08:31:05;;;;;;;;;;;;;;;24.86;100.00;148964.56;5049504;28;19913;-78
2022/07/05 08:33:31;;;;;;;;;;;;;;;25.31;100.00;149077.75;5016124;28;20261;-80
2022/07/05 08:35:56;;;;;;;;;;;;;;;25.99;100.00;149247.44;5049617;28;20365;-78
2022/07/05 08:38:22;;;;;;;;;;;;;;;26.10;100.00;149275.78;5015905;28;20015;-78
2022/07/05 08:40:50;;;;;;;;;;;;;;;26.07;100.00;149266.72;5015681;28;20254;-78
2022/07/05 08:43:18;;;;;;;;;;;;;;;25.96;100.00;149239.69;5049298;28;19917;-79
2022/07/05 08:45:44;;;;;;;;;;;;;;;25.81;100.00;149202.44;5015709;28;19913;-79
2022/07/05 08:48:09;;;;;;;;;;;;;;;25.91;100.00;149226.84;5015984;28;19932;-79
2022/07/05 08:50:36;;;;;;;;;;;;;;;24.48;100.00;148869.47;5016397;28;19909;-79
2022/07/05 08:53:03;;;;;;;;;;;;;;;23.76;100.00;148690.91;5015947;28;20529;-79
2022/07/05 08:55:30;;;;;;;;;;;;;;;24.75;100.00;148937.63;5016011;28;19913;-77
2022/07/05 08:57:56;;;;;;;;;;;;;;;25.23;100.00;149058.41;5016096;28;20384;-78
2022/07/05 09:00:21;;;;;;;;;;;;;;;25.80;100.00;149201.09;5048973;28;19913;-81
2022/07/05 09:02:50;;;;;;;;;;;;;;;24.94;100.00;148983.84;5015683;28;19909;-77
2022/07/05 09:05:16;;;;;;;;;;;;;;;23.89;100.00;148721.78;5016162;28;20293;-79
2022/07/05 09:07:47;;;;;;;;;;;;;;;23.60;100.00;148651.13;5033275;28;19920;-79
2022/07/05 09:10:14;;;;;;;;;;;;;;;23.88;100.00;148719.19;5015835;28;19917;-80
2022/07/05 09:12:39;;;;;;;;;;;;;;;24.17;100.00;148793.66;5033481;28;19917;-79
2022/07/05 09:15:05;;;;;;;;;;;;;;;23.68;100.00;148670.38;5030959;28;19924;-78
2022/07/05 09:17:30;;;;;;;;;;;;;;;23.49;100.00;148622.84;5030231;28;20364;-78
2022/07/05 09:20:07;;;;;;;;;;;;;;;22.95;100.00;148489.34;5034646;28;19920;-79
2022/07/05 09:23:02;;;;;;;;;;;;;;;22.64;100.00;148409.75;5035066;28;19913;-78
2022/07/05 09:25:28;;;;;;;;;;;;;;;23.87;100.00;148716.66;5043902;28;19962;-79
2022/07/05 09:27:53;;;;;;;;;;;;;;;24.04;100.00;148759.03;5087235;28;19916;-77
2022/07/05 09:30:25;;;;;;;;;;;;;;;24.15;100.00;148788.56;5052219;28;19960;-79
2022/07/05 09:33:01;;;;;;;;;;;;;;;24.06;100.00;148765.44;5052308;28;19962;-80
2022/07/05 09:35:28;;;;;;;;;;;;;;;24.28;100.00;148819.38;5045555;28;20068;-80
2022/07/05 09:37:53;;;;;;;;;;;;;;;24.86;100.00;148964.56;5053087;28;19935;-81
2022/07/05 09:40:18;;;;;;;;;;;;;;;23.95;100.00;148738.47;5052634;28;19916;-80
2022/07/05 09:42:44;;;;;;;;;;;;;;;24.24;100.00;148809.09;5050396;28;19917;-78
2022/07/05 09:45:09;;;;;;;;;;;;;;;24.10;100.00;148775.72;5050723;28;19993;-78
2022/07/05 09:47:38;;;;;;;;;;;;;;;23.50;100.00;148625.44;5050761;28;19947;-79
2022/07/05 09:50:07;;;;;;;;;;;;;;;24.02;100.00;148756.44;5084617;28;20015;-76
2022/07/05 09:52:33;;;;;;;;;;;;;;;23.94;100.00;148735.91;5050994;28;20016;-78
2022/07/05 09:55:02;;;;;;;;;;;;;;;23.84;100.00;148711.50;5082742;28;20025;-78
2022/07/05 09:57:27;;;;;;;;;;;;;;;23.13;100.00;148533.00;5052593;28;20046;-79
2022/07/05 10:00:04;;;;;;;;;;;;;;;23.38;100.00;148595.88;5051487;28;19959;-78
2022/07/05 10:03:07;;;;;;;;;;;;;;;23.41;100.00;148603.59;5051671;28;19913;-79
2022/07/05 10:05:32;;;;;;;;;;;;;;;23.86;100.00;148715.34;4955720;28;20398;-78
2022/07/05 10:08:01;;;;;;;;;;;;;;;23.97;100.00;148743.63;5031091;28;19947;-78
2022/07/05 10:10:30;;;;;;;;;;;;;;;23.16;100.00;148540.72;5052675;28;20292;-74
2022/07/05 10:12:58;;;;;;;;;;;;;;;23.15;100.00;148538.16;5050568;28;19913;-77
2022/07/05 10:15:28;;;;;;;;;;;;;;;23.14;100.00;148534.31;5052890;28;19989;-78
2022/07/05 10:17:59;;;;;;;;;;;;;;;23.63;100.00;148657.50;5051106;28;19913;-79
2022/07/05 10:20:37;;;;;;;;;;;;;;;23.82;100.00;148705.06;5051716;28;19913;-80
2022/07/05 10:23:04;;;;;;;;;;;;;;;23.37;100.00;148593.34;5054871;28;20046;-80
2022/07/05 10:25:29;;;;;;;;;;;;;;;23.86;100.00;148715.34;5053464;28;19924;-78
2022/07/05 10:27:55;;;;;;;;;;;;;;;23.87;100.00;148716.66;5057593;28;19916;-78
2022/07/05 10:30:22;;;;;;;;;;;;;;;22.98;100.00;148495.75;5058063;28;19913;-78
2022/07/05 10:32:49;;;;;;;;;;;;;;;23.39;100.00;148597.19;5057538;28;19975;-78
2022/07/05 10:35:15;;;;;;;;;;;;;;;23.58;100.00;148644.69;5058702;28;19919;-78
2022/07/05 10:37:41;;;;;;;;;;;;;;;23.59;100.00;148648.53;5076403;28;19955;-78
2022/07/05 10:40:06;;;;;;;;;;;;;;;23.50;100.00;148624.16;5056681;28;19912;-78
2022/07/05 10:42:34;;;;;;;;;;;;;;;23.47;100.00;148619.00;5057688;28;20301;-78
2022/07/05 10:45:00;;;;;;;;;;;;;;;22.94;100.00;148486.75;5075623;28;20485;-79
2022/07/05 10:47:27;;;;;;;;;;;;;;;22.65;100.00;148412.34;5058453;28;19912;-80
2022/07/05 10:50:03;;;;;;;;;;;;;;;23.21;100.00;148553.56;5058189;28;19919;-77
2022/07/05 10:52:28;;;;;;;;;;;;;;;23.65;100.00;148662.69;5058400;28;19916;-79
2022/07/05 10:55:12;;;;;;;;;;;;;;;23.44;100.00;148611.28;5058443;28;20428;-79
2022/07/05 10:57:38;;;;;;;;;;;;;;;23.46;100.00;148615.16;5058453;28;20333;-79
2022/07/05 11:00:06;;;;;;;;;;;;;;;23.28;100.00;148571.50;5057992;28;19920;-79
2022/07/05 11:02:31;;;;;;;;;;;;;;;23.32;100.00;148580.53;5058218;28;19920;-80
2022/07/05 11:04:57;;;;;;;;;;;;;;;22.99;100.00;148497.03;5058364;28;19912;-80
2022/07/05 11:07:41;;;;;;;;;;;;;;;23.25;100.00;148562.53;5058773;28;19965;-79
2022/07/05 11:10:07;;;;;;;;;;;;;;;23.04;100.00;148509.84;5057506;28;19935;-80
2022/07/05 11:12:38;;;;;;;;;;;;;;;22.57;100.00;148394.34;5056283;28;19980;-79
2022/07/05 11:15:05;;;;;;;;;;;;;;;22.39;100.00;148348.22;5074218;28;19916;-78
2022/07/05 11:17:30;;;;;;;;;;;;;;;22.45;100.00;148363.63;5075475;28;19920;-78
2022/07/05 11:20:02;;;;;;;;;;;;;;;22.29;100.00;148322.50;5057849;28;19912;-80
2022/07/05 11:22:28;;;;;;;;;;;;;;;22.51;100.00;148377.69;5075426;28;19919;-80
2022/07/05 11:24:55;;;;;;;;;;;;;;;22.85;100.00;148462.38;5057408;28;19912;-80
2022/07/05 11:27:20;;;;;;;;;;;;;;;22.61;100.00;148403.38;5057635;28;19916;-79
2022/07/05 11:29:48;;;;;;;;;;;;;;;22.56;100.00;148391.81;5057690;28;19912;-80
2022/07/05 11:32:14;;;;;;;;;;;;;;;22.59;100.00;148398.19;5057845;28;19908;-80
2022/07/05 11:34:41;;;;;;;;;;;;;;;22.76;100.00;148441.88;5057497;28;20256;-80
2022/07/05 11:37:18;;;;;;;;;;;;;;;22.91;100.00;148479.06;5054794;28;20345;-80
2022/07/05 11:39:44;;;;;;;;;;;;;;;22.71;100.00;148429.00;5057836;28;19912;-80
2022/07/05 11:42:10;;;;;;;;;;;;;;;23.30;100.00;148576.69;5057512;28;19912;-79
2022/07/05 11:44:40;;;;;;;;;;;;;;;23.31;100.00;148577.94;5057113;28;19915;-82
2022/07/05 11:47:05;;;;;;;;;;;;;;;22.51;100.00;148377.69;5057878;28;19942;-81
2022/07/05 11:49:31;;;;;;;;;;;;;;;22.71;100.00;148427.75;5057161;28;19912;-80
2022/07/05 11:51:57;;;;;;;;;;;;;;;22.72;100.00;148430.31;5057817;28;19912;-81
2022/07/05 11:54:33;;;;;;;;;;;;;;;22.64;100.00;148411.06;5075221;28;19924;-81
2022/07/05 11:56:59;;;;;;;;;;;;;;;22.48;100.00;148371.31;5057810;28;20029;-82
2022/07/05 11:59:25;;;;;;;;;;;;;;;22.50;100.00;148375.16;5057881;28;19913;-81
2022/07/05 12:01:50;;;;;;;;;;;;;;;23.03;100.00;148507.31;5057435;28;19916;-81
2022/07/05 12:04:24;;;;;;;;;;;;;;;22.72;100.00;148431.59;5057351;28;19920;-82
2022/07/05 12:06:50;;;;;;;;;;;;;;;22.90;100.00;148476.50;5056917;28;19916;-82
2022/07/05 12:09:21;;;;;;;;;;;;;;;23.09;100.00;148524.03;5056989;28;19919;-83
2022/07/05 12:14:34;;;;;;;;;;;;;;;23.14;100.00;148535.59;5073783;28;20272;-81
2022/07/05 12:17:15;;;;;;;;;;;;;;;22.82;100.00;148455.94;5055149;28;19908;-80
2022/07/05 12:19:41;;;;;;;;;;;;;;;22.80;100.00;148450.84;5049726;28;20332;-81
2022/07/05 12:22:06;;;;;;;;;;;;;;;22.86;100.00;148466.22;5057218;28;19951;-79
2022/07/05 12:24:34;;;;;;;;;;;;;;;22.56;100.00;148390.56;5056161;28;19912;-78
2022/07/05 12:26:59;;;;;;;;;;;;;;;22.43;100.00;148358.44;5056435;28;19916;-79
2022/07/05 12:29:24;;;;;;;;;;;;;;;22.54;100.00;148385.41;5056063;28;19969;-81
2022/07/05 12:31:59;;;;;;;;;;;;;;;22.84;100.00;148461.13;5056020;28;20450;-81
2022/07/05 12:34:26;;;;;;;;;;;;;;;23.10;100.00;148525.31;5074220;28;20288;-80
2022/07/05 12:36:51;;;;;;;;;;;;;;;23.20;100.00;148549.72;5055968;28;19981;-80